Terminal Aerodrome Forecast
Issued by NWS

Home | Current Version | Previous Version | Text Only | Print | Product List | Glossary On
Versions: 1 2 3 4 5 6 7 8 9 10 11 12 13 14 15 16 17 18 19 20 21 22 23
000
FTUS46 KSEW 250250 AAA
TAFOLM
TAF AMD
KOLM 250250Z 2503/2524 00000KT P6SM OVC030
     FM250600 00000KT 2SM BR OVC002
     FM251000 00000KT 1/4SM FZFG VV001
     FM251700 00000KT 3SM BR OVC003
     FM252100 VRB03KT P6SM BKN025
      TEMPO 2521/2524 SCT030=

USA.gov is the U.S. government's official web portal to all federal, state and local government web resources and services.